Time;durP1;ratioP1;P1;durP2;ratioP2;P2;SDS_P1;SDS_P2;PMS_P1;PMS_P2;Temp;Humidity;BMP_temperature;BMP_pressure;BME280_temperature;BME280_humidity;BME280_pressure;Samples;Min_cycle;Max_cycle;Signal;HPM_P1;HPM_P2
2022/04/06 00:00:10;;;;;;;13.15;7.80;;;;;;;;;;4912259;29;20043;-56
2022/04/06 00:02:37;;;;;;;11.88;6.55;;;;;;;;;;4926202;29;20118;-59
2022/04/06 00:05:03;;;;;;;10.95;6.60;;;;;;;;;;4910503;29;20032;-56
2022/04/06 00:07:28;;;;;;;11.68;6.95;;;;;;;;;;4926752;29;20085;-54
2022/04/06 00:09:53;;;;;;;12.67;6.33;;;;;;;;;;4923860;29;20495;-57
2022/04/06 00:12:19;;;;;;;10.57;6.33;;;;;;;;;;4927228;29;20342;-59
2022/04/06 00:14:44;;;;;;;11.27;6.40;;;;;;;;;;4926924;29;20346;-60
2022/04/06 00:17:10;;;;;;;10.80;6.37;;;;;;;;;;4927317;29;20302;-59
2022/04/06 00:19:36;;;;;;;12.63;7.47;;;;;;;;;;4911409;29;20288;-60
2022/04/06 00:22:01;;;;;;;11.80;6.47;;;;;;;;;;4926802;29;20035;-59
2022/04/06 00:24:27;;;;;;;12.48;6.70;;;;;;;;;;4926359;29;20508;-58
2022/04/06 00:26:52;;;;;;;10.95;6.25;;;;;;;;;;4926136;29;20071;-57
2022/04/06 00:29:17;;;;;;;11.48;6.28;;;;;;;;;;4925671;29;20567;-60
2022/04/06 00:31:43;;;;;;;12.83;6.70;;;;;;;;;;4926576;29;20421;-55
2022/04/06 00:34:08;;;;;;;11.03;6.10;;;;;;;;;;4926561;29;20346;-59
2022/04/06 00:36:33;;;;;;;11.47;6.60;;;;;;;;;;4927047;29;20275;-59
2022/04/06 00:38:58;;;;;;;11.15;6.40;;;;;;;;;;4893862;29;20354;-60
2022/04/06 00:41:24;;;;;;;10.57;6.07;;;;;;;;;;4909943;29;20133;-59
2022/04/06 00:44:09;;;;;;;12.63;6.60;;;;;;;;;;4909029;29;20295;-59
2022/04/06 00:46:34;;;;;;;11.43;6.22;;;;;;;;;;4924507;29;20334;-60
2022/04/06 00:49:00;;;;;;;13.43;6.83;;;;;;;;;;4925173;29;20059;-57
2022/04/06 00:51:25;;;;;;;10.32;6.15;;;;;;;;;;4928010;29;20287;-60
2022/04/06 00:53:50;;;;;;;12.10;6.63;;;;;;;;;;4911459;29;20031;-57
2022/04/06 00:56:15;;;;;;;11.60;6.40;;;;;;;;;;4928870;29;20861;-59
2022/04/06 00:58:41;;;;;;;12.27;6.70;;;;;;;;;;4894920;29;20355;-58
2022/04/06 01:01:06;;;;;;;12.00;6.47;;;;;;;;;;4928843;29;20306;-57
2022/04/06 01:03:31;;;;;;;11.17;6.53;;;;;;;;;;4926702;29;20283;-59
2022/04/06 01:05:56;;;;;;;9.77;6.13;;;;;;;;;;4928646;29;20094;-60
2022/04/06 01:08:23;;;;;;;12.32;6.57;;;;;;;;;;4927225;29;20399;-59
2022/04/06 01:10:48;;;;;;;11.15;6.38;;;;;;;;;;4926576;29;20035;-59
2022/04/06 01:13:13;;;;;;;10.73;6.67;;;;;;;;;;4927799;29;20495;-58
2022/04/06 01:15:39;;;;;;;11.18;6.28;;;;;;;;;;4926345;29;20670;-57
2022/04/06 01:18:04;;;;;;;11.18;6.28;;;;;;;;;;4922627;29;20058;-56
2022/04/06 01:20:30;;;;;;;10.90;6.38;;;;;;;;;;4916262;29;20036;-58
2022/04/06 01:22:55;;;;;;;10.68;5.82;;;;;;;;;;4927742;29;20051;-57
2022/04/06 01:25:20;;;;;;;9.70;5.97;;;;;;;;;;4928186;29;20554;-57
2022/04/06 01:27:46;;;;;;;10.45;5.90;;;;;;;;;;4928147;29;20031;-57
2022/04/06 01:30:11;;;;;;;10.40;6.07;;;;;;;;;;4911004;29;20742;-56
2022/04/06 01:32:36;;;;;;;10.45;5.93;;;;;;;;;;4928167;29;20306;-59
2022/04/06 01:35:02;;;;;;;10.68;6.13;;;;;;;;;;4915609;29;20028;-55
2022/04/06 01:37:28;;;;;;;10.10;5.43;;;;;;;;;;4924816;29;20028;-55
2022/04/06 01:39:53;;;;;;;10.57;5.78;;;;;;;;;;4925337;29;20042;-59
2022/04/06 01:42:22;;;;;;;10.07;5.00;;;;;;;;;;4921844;29;20419;-57
2022/04/06 01:44:48;;;;;;;9.88;5.47;;;;;;;;;;4918962;29;20039;-61
2022/04/06 01:47:15;;;;;;;10.55;6.25;;;;;;;;;;4927521;29;20053;-54
2022/04/06 01:52:24;;;;;;;10.57;5.85;;;;;;;;;;4928196;29;20047;-59
2022/04/06 01:54:50;;;;;;;10.45;5.30;;;;;;;;;;4925585;29;20028;-55
2022/04/06 01:57:16;;;;;;;11.98;6.38;;;;;;;;;;4927646;29;20107;-56
2022/04/06 01:59:41;;;;;;;10.10;5.70;;;;;;;;;;4911155;29;20742;-53
2022/04/06 02:02:07;;;;;;;11.63;6.32;;;;;;;;;;4926918;29;20531;-55
2022/04/06 02:04:32;;;;;;;9.77;6.00;;;;;;;;;;4927012;29;20043;-59
2022/04/06 02:06:58;;;;;;;11.02;6.07;;;;;;;;;;4926777;29;20048;-59
2022/04/06 02:09:23;;;;;;;9.30;5.45;;;;;;;;;;4927303;29;20115;-56
2022/04/06 02:11:49;;;;;;;10.02;5.97;;;;;;;;;;4927060;29;20019;-59
2022/04/06 02:14:14;;;;;;;9.20;5.63;;;;;;;;;;4926977;29;20054;-56
2022/04/06 02:16:39;;;;;;;9.87;5.63;;;;;;;;;;4927273;29;20038;-56
2022/04/06 02:19:05;;;;;;;9.82;5.63;;;;;;;;;;4913512;29;20292;-56
2022/04/06 02:21:31;;;;;;;9.45;5.50;;;;;;;;;;4923537;29;20035;-55
2022/04/06 02:23:56;;;;;;;9.07;5.32;;;;;;;;;;4926572;29;20052;-57
2022/04/06 02:26:21;;;;;;;10.40;5.50;;;;;;;;;;4927393;29;20498;-53
2022/04/06 02:28:46;;;;;;;9.93;6.00;;;;;;;;;;4925962;29;20291;-56
2022/04/06 02:31:12;;;;;;;9.88;5.85;;;;;;;;;;4926883;29;20123;-55
2022/04/06 02:33:37;;;;;;;9.37;5.23;;;;;;;;;;4926172;29;20064;-58
2022/04/06 02:36:03;;;;;;;8.30;4.95;;;;;;;;;;4910314;29;20342;-57
2022/04/06 02:38:29;;;;;;;9.18;5.18;;;;;;;;;;4928683;29;20040;-59
2022/04/06 02:40:54;;;;;;;10.02;5.43;;;;;;;;;;4927111;29;20035;-59
2022/04/06 02:43:19;;;;;;;9.17;5.70;;;;;;;;;;4928264;29;20031;-59
2022/04/06 02:45:44;;;;;;;10.23;5.50;;;;;;;;;;4928260;29;20360;-56
2022/04/06 02:48:10;;;;;;;8.20;4.73;;;;;;;;;;4928188;29;20282;-59
2022/04/06 02:50:35;;;;;;;8.63;5.03;;;;;;;;;;4928408;29;20343;-57
2022/04/06 02:53:00;;;;;;;8.87;5.43;;;;;;;;;;4911487;29;20764;-58
2022/04/06 02:55:25;;;;;;;10.00;5.10;;;;;;;;;;4912977;29;20261;-57
2022/04/06 02:57:51;;;;;;;7.10;4.72;;;;;;;;;;4924778;29;20272;-56
2022/04/06 03:00:16;;;;;;;9.32;5.03;;;;;;;;;;4914718;29;20411;-58
2022/04/06 03:02:46;;;;;;;8.40;4.85;;;;;;;;;;4927726;29;20163;-55
2022/04/06 03:05:11;;;;;;;7.78;4.50;;;;;;;;;;4911260;29;20034;-58
2022/04/06 03:07:36;;;;;;;8.77;4.95;;;;;;;;;;4928164;29;20027;-55
2022/04/06 03:10:02;;;;;;;7.67;4.23;;;;;;;;;;4927871;29;20023;-58
2022/04/06 03:12:27;;;;;;;8.32;4.57;;;;;;;;;;4927135;29;20801;-59
2022/04/06 03:14:52;;;;;;;10.33;5.10;;;;;;;;;;4926006;29;21257;-57
2022/04/06 03:17:17;;;;;;;7.20;4.57;;;;;;;;;;4927124;29;20378;-59
2022/04/06 03:19:43;;;;;;;8.85;5.30;;;;;;;;;;4927677;29;20291;-58
2022/04/06 03:22:08;;;;;;;8.10;4.47;;;;;;;;;;4927768;29;20665;-59
2022/04/06 03:24:33;;;;;;;8.83;4.80;;;;;;;;;;4927192;29;20077;-60
2022/04/06 03:27:00;;;;;;;8.52;4.90;;;;;;;;;;4927595;29;20311;-59
2022/04/06 03:29:25;;;;;;;7.83;4.77;;;;;;;;;;4927714;29;20066;-58
2022/04/06 03:31:50;;;;;;;7.97;4.60;;;;;;;;;;4927261;29;20271;-59
2022/04/06 03:34:15;;;;;;;8.50;5.17;;;;;;;;;;4927442;29;20078;-52
2022/04/06 03:36:41;;;;;;;7.43;4.70;;;;;;;;;;4910522;29;20318;-56
2022/04/06 03:39:06;;;;;;;7.83;4.53;;;;;;;;;;4915135;29;20280;-59
2022/04/06 03:41:31;;;;;;;8.30;4.63;;;;;;;;;;4924375;29;21101;-58
2022/04/06 03:43:56;;;;;;;7.67;4.47;;;;;;;;;;4926925;29;20275;-59
2022/04/06 03:46:22;;;;;;;8.10;4.80;;;;;;;;;;4925980;29;20283;-59
2022/04/06 03:48:47;;;;;;;7.67;4.60;;;;;;;;;;4927705;29;20267;-57
2022/04/06 03:51:12;;;;;;;8.30;4.20;;;;;;;;;;4927642;29;20294;-59
2022/04/06 03:53:37;;;;;;;7.93;4.70;;;;;;;;;;4925792;29;20916;-56
2022/04/06 03:56:03;;;;;;;8.13;3.93;;;;;;;;;;4927149;29;20335;-59
2022/04/06 03:58:29;;;;;;;7.75;4.72;;;;;;;;;;4919864;29;20359;-58
2022/04/06 04:00:54;;;;;;;7.28;4.20;;;;;;;;;;4925006;29;20101;-57
2022/04/06 04:03:19;;;;;;;7.57;4.45;;;;;;;;;;4926224;29;20456;-59
2022/04/06 04:05:44;;;;;;;8.73;4.80;;;;;;;;;;4926220;29;20043;-59
2022/04/06 04:08:10;;;;;;;9.53;4.60;;;;;;;;;;4925629;29;20271;-60
2022/04/06 04:10:35;;;;;;;6.70;4.40;;;;;;;;;;4926055;29;20775;-60
2022/04/06 04:13:00;;;;;;;7.32;4.20;;;;;;;;;;4909581;29;20703;-53
2022/04/06 04:15:25;;;;;;;14.00;4.53;;;;;;;;;;4926310;29;20043;-57
2022/04/06 04:17:51;;;;;;;8.33;4.37;;;;;;;;;;4924110;29;20090;-61
2022/04/06 04:20:16;;;;;;;8.90;4.77;;;;;;;;;;4913449;29;20836;-69
2022/04/06 04:22:41;;;;;;;10.07;4.37;;;;;;;;;;4926266;29;20296;-61
2022/04/06 04:25:07;;;;;;;7.20;4.17;;;;;;;;;;4932046;29;20346;-57
2022/04/06 04:27:32;;;;;;;7.47;4.45;;;;;;;;;;4932731;29;20341;-55
2022/04/06 04:29:57;;;;;;;7.37;4.43;;;;;;;;;;4932064;29;20082;-56
2022/04/06 04:32:23;;;;;;;7.55;4.10;;;;;;;;;;4932232;29;20358;-55
2022/04/06 04:34:48;;;;;;;7.27;4.33;;;;;;;;;;4931851;29;20038;-58
2022/04/06 04:37:13;;;;;;;6.47;4.00;;;;;;;;;;4931767;29;20779;-57
2022/04/06 04:39:38;;;;;;;8.17;4.53;;;;;;;;;;4931660;29;20672;-60
2022/04/06 04:42:04;;;;;;;6.80;3.97;;;;;;;;;;4932272;29;20876;-61
2022/04/06 04:44:30;;;;;;;7.57;4.05;;;;;;;;;;4931757;29;20311;-55
2022/04/06 04:46:55;;;;;;;7.95;4.45;;;;;;;;;;4930895;29;20055;-60
2022/04/06 04:49:20;;;;;;;8.17;4.27;;;;;;;;;;4931817;29;20392;-64
2022/04/06 04:51:45;;;;;;;7.97;4.80;;;;;;;;;;4914788;29;20407;-59
2022/04/06 04:54:11;;;;;;;7.07;4.00;;;;;;;;;;4930916;29;20294;-63
2022/04/06 04:56:36;;;;;;;7.05;3.92;;;;;;;;;;4912639;29;20498;-62
2022/04/06 04:59:01;;;;;;;6.70;3.95;;;;;;;;;;4931163;29;20024;-59
2022/04/06 05:01:27;;;;;;;8.32;4.45;;;;;;;;;;4931286;29;20035;-60
2022/04/06 05:03:52;;;;;;;8.57;4.47;;;;;;;;;;4931482;29;20037;-63
2022/04/06 05:06:17;;;;;;;8.20;4.40;;;;;;;;;;4932105;29;20027;-64
2022/04/06 05:08:42;;;;;;;6.63;4.22;;;;;;;;;;4915072;29;20530;-55
2022/04/06 05:11:08;;;;;;;8.47;4.13;;;;;;;;;;4931504;29;20113;-60
2022/04/06 05:13:33;;;;;;;7.57;4.17;;;;;;;;;;4932065;29;20279;-60
2022/04/06 05:15:58;;;;;;;8.23;4.53;;;;;;;;;;4929250;29;20271;-62
2022/04/06 05:18:23;;;;;;;7.23;3.97;;;;;;;;;;4930848;29;20439;-61
2022/04/06 05:20:49;;;;;;;8.23;3.65;;;;;;;;;;4931888;29;20288;-61
2022/04/06 05:23:15;;;;;;;7.70;4.28;;;;;;;;;;4932096;29;20753;-62
2022/04/06 05:25:40;;;;;;;6.95;4.07;;;;;;;;;;4931893;29;20038;-61
2022/04/06 05:28:05;;;;;;;7.35;3.95;;;;;;;;;;4930907;29;20730;-58
2022/04/06 05:30:32;;;;;;;9.70;5.07;;;;;;;;;;4930948;29;20167;-58
2022/04/06 05:32:57;;;;;;;6.70;4.38;;;;;;;;;;4932345;29;20039;-62
2022/04/06 05:35:24;;;;;;;8.55;4.47;;;;;;;;;;4925896;29;20031;-63
2022/04/06 05:37:49;;;;;;;6.70;3.80;;;;;;;;;;4926307;29;20024;-64
2022/04/06 05:40:15;;;;;;;6.80;3.78;;;;;;;;;;4928564;29;20031;-66
2022/04/06 05:42:40;;;;;;;11.68;4.70;;;;;;;;;;4928956;29;20016;-62
2022/04/06 05:45:06;;;;;;;7.68;4.40;;;;;;;;;;4906628;29;20578;-59
2022/04/06 05:47:32;;;;;;;6.82;4.07;;;;;;;;;;4928007;29;20023;-62
2022/04/06 05:49:57;;;;;;;6.28;3.50;;;;;;;;;;4928052;29;20067;-57
2022/04/06 05:52:22;;;;;;;10.50;5.03;;;;;;;;;;4924155;29;20046;-59
2022/04/06 05:54:51;;;;;;;8.98;4.63;;;;;;;;;;4924364;29;20285;-58
2022/04/06 05:57:16;;;;;;;6.05;3.60;;;;;;;;;;4925563;29;20028;-58
2022/04/06 05:59:41;;;;;;;7.68;4.28;;;;;;;;;;4925963;29;20035;-57
2022/04/06 06:02:07;;;;;;;6.70;3.83;;;;;;;;;;4926480;29;20027;-65
2022/04/06 06:04:33;;;;;;;8.55;3.97;;;;;;;;;;4903465;28;20054;-63
2022/04/06 06:06:58;;;;;;;6.90;3.75;;;;;;;;;;4946081;28;20024;-61
2022/04/06 06:09:23;;;;;;;8.13;4.13;;;;;;;;;;4948088;29;20023;-60
2022/04/06 06:11:49;;;;;;;8.60;4.33;;;;;;;;;;4942496;29;20513;-63
2022/04/06 06:14:14;;;;;;;7.97;4.07;;;;;;;;;;4943510;29;21112;-55
2022/04/06 06:16:39;;;;;;;8.30;4.47;;;;;;;;;;4944652;28;20723;-60
2022/04/06 06:19:04;;;;;;;7.07;3.75;;;;;;;;;;4944707;28;20285;-65
2022/04/06 06:21:32;;;;;;;8.00;4.33;;;;;;;;;;4945596;28;20035;-58
2022/04/06 06:24:04;;;;;;;7.03;4.10;;;;;;;;;;4944410;28;20362;-59
2022/04/06 06:26:29;;;;;;;6.72;3.88;;;;;;;;;;4944148;28;20097;-59
2022/04/06 06:28:54;;;;;;;8.57;4.47;;;;;;;;;;4927972;29;20114;-58
2022/04/06 06:31:19;;;;;;;7.57;4.27;;;;;;;;;;4945142;29;20095;-59
2022/04/06 06:33:45;;;;;;;8.63;4.47;;;;;;;;;;4944586;28;20274;-59
2022/04/06 06:36:11;;;;;;;9.93;5.10;;;;;;;;;;4939783;28;20291;-58
2022/04/06 06:38:36;;;;;;;7.97;4.03;;;;;;;;;;4943438;28;20046;-59
2022/04/06 06:41:01;;;;;;;8.57;4.70;;;;;;;;;;4943184;28;20067;-56
2022/04/06 06:43:27;;;;;;;7.37;4.27;;;;;;;;;;4945063;28;20821;-61
2022/04/06 06:45:53;;;;;;;9.27;4.20;;;;;;;;;;4944822;28;20279;-59
2022/04/06 06:48:18;;;;;;;7.78;3.83;;;;;;;;;;4942593;28;20035;-61
2022/04/06 06:50:43;;;;;;;8.18;4.13;;;;;;;;;;4943778;28;20035;-56
2022/04/06 06:53:09;;;;;;;8.15;4.25;;;;;;;;;;4943497;28;20112;-61
2022/04/06 06:55:34;;;;;;;6.67;3.80;;;;;;;;;;4943429;28;20694;-59
2022/04/06 06:57:59;;;;;;;8.13;5.00;;;;;;;;;;4945497;28;20090;-59
2022/04/06 07:00:24;;;;;;;8.35;4.50;;;;;;;;;;4943186;28;20386;-59
2022/04/06 07:02:50;;;;;;;8.73;4.57;;;;;;;;;;4943996;28;20716;-60
2022/04/06 07:05:15;;;;;;;7.68;4.40;;;;;;;;;;4944232;28;20315;-57
2022/04/06 07:08:07;;;;;;;8.43;4.18;;;;;;;;;;4919775;29;20020;-59
2022/04/06 07:10:32;;;;;;;8.75;4.00;;;;;;;;;;4939507;28;20047;-55
2022/04/06 07:12:58;;;;;;;8.38;4.45;;;;;;;;;;4926460;28;20418;-60
2022/04/06 07:15:23;;;;;;;9.02;4.53;;;;;;;;;;4938592;28;20027;-57
2022/04/06 07:17:55;;;;;;;10.48;4.70;;;;;;;;;;4902258;28;20072;-59
2022/04/06 07:20:21;;;;;;;6.47;3.78;;;;;;;;;;4910507;29;20825;-54
2022/04/06 07:22:46;;;;;;;7.28;4.13;;;;;;;;;;4937210;29;20032;-58
2022/04/06 07:25:12;;;;;;;8.55;4.30;;;;;;;;;;4944437;29;20528;-56
2022/04/06 07:27:38;;;;;;;7.53;4.20;;;;;;;;;;4944791;29;20110;-59
2022/04/06 07:30:03;;;;;;;9.13;4.10;;;;;;;;;;4941509;28;20031;-60
2022/04/06 07:32:29;;;;;;;8.02;4.18;;;;;;;;;;4943761;28;20011;-59
2022/04/06 07:34:55;;;;;;;8.15;4.45;;;;;;;;;;4943291;28;20538;-57
2022/04/06 07:37:20;;;;;;;9.75;5.00;;;;;;;;;;4941767;28;20023;-59
2022/04/06 07:39:45;;;;;;;8.40;4.57;;;;;;;;;;4941413;28;20111;-55
2022/04/06 07:42:10;;;;;;;8.30;4.60;;;;;;;;;;4941312;28;20298;-57
2022/04/06 07:44:36;;;;;;;7.57;4.25;;;;;;;;;;4942166;28;20037;-59
2022/04/06 07:47:01;;;;;;;8.80;5.00;;;;;;;;;;4942176;28;20137;-55
2022/04/06 07:49:26;;;;;;;9.70;5.03;;;;;;;;;;4926565;28;20275;-56
2022/04/06 07:51:52;;;;;;;8.87;4.50;;;;;;;;;;4942959;28;20023;-60
2022/04/06 07:54:17;;;;;;;8.52;4.10;;;;;;;;;;4941121;28;20824;-58
2022/04/06 07:56:42;;;;;;;8.38;4.90;;;;;;;;;;4942523;28;20027;-60
2022/04/06 07:59:07;;;;;;;8.90;4.80;;;;;;;;;;4940807;28;20030;-59
2022/04/06 08:01:33;;;;;;;7.47;4.40;;;;;;;;;;4942412;28;20738;-59
2022/04/06 08:03:58;;;;;;;7.65;4.20;;;;;;;;;;4943571;28;20388;-58
2022/04/06 08:06:24;;;;;;;7.72;4.20;;;;;;;;;;4944624;28;20113;-60
2022/04/06 08:08:51;;;;;;;7.97;4.57;;;;;;;;;;4943574;28;20549;-59
2022/04/06 08:11:17;;;;;;;6.95;4.20;;;;;;;;;;4943579;28;20444;-60
2022/04/06 08:13:42;;;;;;;8.40;4.28;;;;;;;;;;4926699;28;20495;-58
2022/04/06 08:16:07;;;;;;;7.30;4.30;;;;;;;;;;4944902;28;20026;-58
2022/04/06 08:18:33;;;;;;;7.53;4.13;;;;;;;;;;4943919;28;20313;-59
2022/04/06 08:20:59;;;;;;;8.23;4.60;;;;;;;;;;4944700;28;20810;-58
2022/04/06 08:23:24;;;;;;;9.15;4.47;;;;;;;;;;4944108;28;20050;-57
2022/04/06 08:25:49;;;;;;;7.85;4.18;;;;;;;;;;4945267;28;20570;-58
2022/04/06 08:28:15;;;;;;;10.45;4.53;;;;;;;;;;4943453;28;20059;-59
2022/04/06 08:30:40;;;;;;;9.45;4.50;;;;;;;;;;4944008;28;20106;-58
2022/04/06 08:33:06;;;;;;;9.70;5.40;;;;;;;;;;4944546;28;20023;-57
2022/04/06 08:35:31;;;;;;;10.50;5.68;;;;;;;;;;4926117;28;20086;-60
2022/04/06 08:37:56;;;;;;;9.70;4.90;;;;;;;;;;4944227;28;20090;-57
2022/04/06 08:40:21;;;;;;;8.85;4.97;;;;;;;;;;4942920;28;20857;-58
2022/04/06 08:42:47;;;;;;;8.90;4.60;;;;;;;;;;4926250;28;20537;-56
2022/04/06 08:45:12;;;;;;;10.73;4.67;;;;;;;;;;4942171;28;20751;-59
2022/04/06 08:47:37;;;;;;;10.80;5.30;;;;;;;;;;4924493;29;20267;-60
2022/04/06 08:50:03;;;;;;;8.27;4.38;;;;;;;;;;4941862;29;20054;-58
2022/04/06 08:52:30;;;;;;;11.52;5.30;;;;;;;;;;4944223;29;20122;-58
2022/04/06 08:54:55;;;;;;;18.40;5.63;;;;;;;;;;4940202;28;20148;-60
2022/04/06 08:57:21;;;;;;;8.35;4.30;;;;;;;;;;4945840;28;20538;-61
2022/04/06 08:59:47;;;;;;;12.45;4.60;;;;;;;;;;4943708;28;20106;-57
2022/04/06 09:02:16;;;;;;;8.65;4.47;;;;;;;;;;4944245;28;20035;-61
2022/04/06 09:04:41;;;;;;;12.32;6.03;;;;;;;;;;4925503;28;20069;-59
2022/04/06 09:07:07;;;;;;;10.37;4.77;;;;;;;;;;4939789;28;20051;-56
2022/04/06 09:09:33;;;;;;;8.73;4.50;;;;;;;;;;4925276;28;20271;-60
2022/04/06 09:11:58;;;;;;;13.65;4.95;;;;;;;;;;4927237;28;20430;-58
2022/04/06 09:14:33;;;;;;;10.10;5.20;;;;;;;;;;4923428;28;20019;-55
2022/04/06 09:17:05;;;;;;;11.27;5.63;;;;;;;;;;4942698;28;20279;-60
2022/04/06 09:19:31;;;;;;;8.95;4.72;;;;;;;;;;4945932;28;20038;-58
2022/04/06 09:21:56;;;;;;;8.85;4.35;;;;;;;;;;4925509;28;20039;-61
2022/04/06 09:24:23;;;;;;;8.35;4.60;;;;;;;;;;4948268;28;20043;-61
2022/04/06 09:26:55;;;;;;;9.93;4.50;;;;;;;;;;4930479;29;20058;-57
2022/04/06 09:29:21;;;;;;;8.30;4.30;;;;;;;;;;4946875;29;20027;-58
2022/04/06 09:31:48;;;;;;;7.93;4.35;;;;;;;;;;4948433;29;20033;-61
2022/04/06 09:34:14;;;;;;;7.93;4.30;;;;;;;;;;4947163;29;20023;-60
2022/04/06 09:36:39;;;;;;;10.53;5.10;;;;;;;;;;4948320;29;20086;-59
2022/04/06 09:39:05;;;;;;;10.57;4.38;;;;;;;;;;4945022;29;20289;-59
2022/04/06 09:41:32;;;;;;;9.02;4.13;;;;;;;;;;4948215;29;20086;-59
2022/04/06 09:44:08;;;;;;;8.30;4.45;;;;;;;;;;4948284;29;20053;-60
2022/04/06 09:49:18;;;;;;;8.68;4.93;;;;;;;;;;4931702;29;20034;-59
2022/04/06 09:51:46;;;;;;;7.47;4.18;;;;;;;;;;4947744;29;20374;-58
2022/04/06 09:54:12;;;;;;;12.27;6.50;;;;;;;;;;4942834;29;20035;-58
2022/04/06 09:56:38;;;;;;;10.82;6.13;;;;;;;;;;4937089;29;20507;-58
2022/04/06 09:59:03;;;;;;;11.95;7.00;;;;;;;;;;4945887;29;20512;-58
2022/04/06 10:01:31;;;;;;;17.92;11.23;;;;;;;;;;4944732;28;20106;-57
2022/04/06 10:03:57;;;;;;;11.82;6.72;;;;;;;;;;4942931;28;20142;-59
2022/04/06 10:06:22;;;;;;;11.52;6.47;;;;;;;;;;4927174;28;20502;-59
2022/04/06 10:08:47;;;;;;;11.43;7.13;;;;;;;;;;4944033;28;20023;-59
2022/04/06 10:11:13;;;;;;;11.57;7.87;;;;;;;;;;4927849;28;20031;-58
2022/04/06 10:13:38;;;;;;;16.35;14.65;;;;;;;;;;4945316;28;20271;-60
2022/04/06 10:16:03;;;;;;;16.13;12.23;;;;;;;;;;4945290;28;20082;-57
2022/04/06 10:18:30;;;;;;;13.60;9.13;;;;;;;;;;4946384;28;20027;-57
2022/04/06 10:20:59;;;;;;;15.05;11.73;;;;;;;;;;4943014;28;20298;-56
2022/04/06 10:23:30;;;;;;;13.00;10.75;;;;;;;;;;4927656;28;20050;-58
2022/04/06 10:26:01;;;;;;;12.65;8.80;;;;;;;;;;4944375;28;20035;-60
2022/04/06 10:28:27;;;;;;;12.20;10.88;;;;;;;;;;4927945;28;20027;-57
2022/04/06 10:31:11;;;;;;;13.23;9.95;;;;;;;;;;4927682;28;20042;-58
2022/04/06 10:33:37;;;;;;;15.52;11.55;;;;;;;;;;4945209;29;20122;-58
2022/04/06 10:36:16;;;;;;;13.55;11.82;;;;;;;;;;4912886;29;20043;-59
2022/04/06 10:38:41;;;;;;;12.85;10.55;;;;;;;;;;4928352;29;20058;-60
2022/04/06 10:41:06;;;;;;;14.13;10.77;;;;;;;;;;4944535;28;20062;-59
2022/04/06 10:43:39;;;;;;;12.35;7.65;;;;;;;;;;4945262;29;20793;-58
2022/04/06 10:46:08;;;;;;;10.95;8.25;;;;;;;;;;4945084;29;20486;-59
2022/04/06 10:48:33;;;;;;;10.90;7.95;;;;;;;;;;4944935;29;20107;-59
2022/04/06 10:51:17;;;;;;;11.70;8.37;;;;;;;;;;4944726;29;20571;-59
2022/04/06 10:53:42;;;;;;;11.43;8.10;;;;;;;;;;4945167;29;20857;-58
2022/04/06 10:56:17;;;;;;;10.90;8.00;;;;;;;;;;4944055;29;20170;-59
2022/04/06 10:58:57;;;;;;;11.10;6.93;;;;;;;;;;4943532;28;20317;-56
2022/04/06 11:01:26;;;;;;;11.50;8.20;;;;;;;;;;4944620;29;20043;-60
2022/04/06 11:04:01;;;;;;;13.32;8.65;;;;;;;;;;4944373;28;20035;-59
2022/04/06 11:07:00;;;;;;;12.63;9.90;;;;;;;;;;4943912;29;20027;-58
2022/04/06 11:12:16;;;;;;;14.15;8.80;;;;;;;;;;4929906;29;20058;-58
2022/04/06 11:14:45;;;;;;;12.35;7.80;;;;;;;;;;4942683;29;20198;-54
2022/04/06 11:17:37;;;;;;;11.40;7.38;;;;;;;;;;4941581;29;20031;-58
2022/04/06 11:20:10;;;;;;;15.63;10.95;;;;;;;;;;4940985;29;20043;-60
2022/04/06 11:22:35;;;;;;;16.77;13.20;;;;;;;;;;4941327;28;20411;-58
2022/04/06 11:25:01;;;;;;;14.68;9.88;;;;;;;;;;4942470;29;20031;-56
2022/04/06 11:27:27;;;;;;;18.85;13.98;;;;;;;;;;4942375;29;20024;-58
2022/04/06 11:30:14;;;;;;;15.27;12.23;;;;;;;;;;4943542;29;20035;-58
2022/04/06 11:32:49;;;;;;;16.35;11.23;;;;;;;;;;4941439;28;20123;-55
2022/04/06 11:35:15;;;;;;;16.02;12.27;;;;;;;;;;4941492;29;20094;-60
2022/04/06 11:37:43;;;;;;;16.98;11.38;;;;;;;;;;4942174;29;20911;-59
2022/04/06 11:40:09;;;;;;;17.20;12.10;;;;;;;;;;4942109;29;20065;-57
2022/04/06 11:42:34;;;;;;;14.57;9.43;;;;;;;;;;4945089;28;20055;-59
2022/04/06 11:45:00;;;;;;;14.82;10.95;;;;;;;;;;4946394;29;20031;-58
2022/04/06 11:47:31;;;;;;;14.13;9.07;;;;;;;;;;4946262;28;20027;-57
2022/04/06 11:49:56;;;;;;;14.18;11.63;;;;;;;;;;4946354;29;20216;-56
2022/04/06 11:52:22;;;;;;;16.27;10.15;;;;;;;;;;4926189;29;20483;-57
2022/04/06 11:55:05;;;;;;;12.10;10.40;;;;;;;;;;4923549;28;20027;-56
2022/04/06 11:57:37;;;;;;;14.07;10.88;;;;;;;;;;4946143;28;20038;-59
2022/04/06 12:00:06;;;;;;;12.93;10.07;;;;;;;;;;4945669;28;20090;-57
2022/04/06 12:02:47;;;;;;;12.63;9.68;;;;;;;;;;4934490;28;20069;-60
2022/04/06 12:05:12;;;;;;;13.00;10.60;;;;;;;;;;4954159;28;20031;-60
2022/04/06 12:07:37;;;;;;;12.13;10.90;;;;;;;;;;4946487;29;20039;-58
2022/04/06 12:10:02;;;;;;;11.47;8.80;;;;;;;;;;4945802;29;20802;-56
2022/04/06 12:12:28;;;;;;;14.20;10.50;;;;;;;;;;4945986;28;20686;-60
2022/04/06 12:14:53;;;;;;;15.17;11.93;;;;;;;;;;4920042;29;20031;-60
2022/04/06 12:17:19;;;;;;;12.80;10.18;;;;;;;;;;4921041;29;20070;-60
2022/04/06 12:19:44;;;;;;;14.15;12.48;;;;;;;;;;4943380;29;20090;-59
2022/04/06 12:22:11;;;;;;;9.40;6.10;;;;;;;;;;4945344;28;20035;-57
2022/04/06 12:24:39;;;;;;;11.85;8.02;;;;;;;;;;4945618;29;20290;-60
2022/04/06 12:27:05;;;;;;;10.82;8.00;;;;;;;;;;4945817;29;20034;-59
2022/04/06 12:29:32;;;;;;;10.65;7.65;;;;;;;;;;4945376;29;20054;-59
2022/04/06 12:31:57;;;;;;;14.25;8.63;;;;;;;;;;4944354;29;20118;-59
2022/04/06 12:34:29;;;;;;;10.60;7.50;;;;;;;;;;4912510;29;20611;-58
2022/04/06 12:36:55;;;;;;;14.02;8.27;;;;;;;;;;4945007;29;20363;-58
2022/04/06 12:39:20;;;;;;;10.20;7.35;;;;;;;;;;4944470;29;20289;-58
2022/04/06 12:41:53;;;;;;;11.15;7.07;;;;;;;;;;4945298;29;20078;-59
2022/04/06 12:44:19;;;;;;;10.50;6.95;;;;;;;;;;4931602;29;20054;-60
2022/04/06 12:46:44;;;;;;;10.32;6.78;;;;;;;;;;4949544;29;20070;-60
2022/04/06 12:49:29;;;;;;;9.48;5.40;;;;;;;;;;4949575;28;20042;-56
2022/04/06 12:52:07;;;;;;;9.52;4.63;;;;;;;;;;4949606;29;20035;-59
2022/04/06 12:54:33;;;;;;;9.88;5.85;;;;;;;;;;4926348;29;20035;-58
2022/04/06 12:57:02;;;;;;;10.30;5.30;;;;;;;;;;4940015;29;20031;-58
2022/04/06 12:59:41;;;;;;;8.13;5.72;;;;;;;;;;4949288;29;20118;-59
2022/04/06 13:02:16;;;;;;;9.65;5.45;;;;;;;;;;4949178;28;20117;-58
2022/04/06 13:04:42;;;;;;;8.15;5.10;;;;;;;;;;4949127;28;20491;-60
2022/04/06 13:07:08;;;;;;;9.38;5.68;;;;;;;;;;4949584;29;20038;-58
2022/04/06 13:09:33;;;;;;;9.77;4.80;;;;;;;;;;4947575;29;20033;-59
2022/04/06 13:11:58;;;;;;;9.40;5.00;;;;;;;;;;4947729;29;20034;-58
2022/04/06 13:14:26;;;;;;;8.23;4.50;;;;;;;;;;4946901;29;20467;-58
2022/04/06 13:16:51;;;;;;;8.50;5.45;;;;;;;;;;4947478;29;20274;-59
2022/04/06 13:19:16;;;;;;;8.03;4.53;;;;;;;;;;4949347;29;20035;-60
2022/04/06 13:21:41;;;;;;;10.17;5.53;;;;;;;;;;4949005;29;20824;-59
2022/04/06 13:24:07;;;;;;;10.03;5.07;;;;;;;;;;4948302;28;20554;-60
2022/04/06 13:26:33;;;;;;;9.45;5.38;;;;;;;;;;4948084;29;20281;-59
2022/04/06 13:28:58;;;;;;;10.13;5.07;;;;;;;;;;4947604;29;20019;-58
2022/04/06 13:31:23;;;;;;;9.67;4.87;;;;;;;;;;4947419;28;20306;-55
2022/04/06 13:33:48;;;;;;;9.05;4.85;;;;;;;;;;4930621;29;20274;-59
2022/04/06 13:36:14;;;;;;;9.25;5.13;;;;;;;;;;4933257;29;20110;-58
2022/04/06 13:38:39;;;;;;;8.55;5.70;;;;;;;;;;4948726;29;20035;-60
2022/04/06 13:41:04;;;;;;;8.53;4.10;;;;;;;;;;4948294;29;20039;-58
2022/04/06 13:43:30;;;;;;;9.05;5.22;;;;;;;;;;4961981;28;20307;-60
2022/04/06 13:45:55;;;;;;;7.65;4.53;;;;;;;;;;4950481;28;20027;-59
2022/04/06 13:48:20;;;;;;;8.52;4.20;;;;;;;;;;4947644;29;20019;-59
2022/04/06 13:50:45;;;;;;;10.77;5.87;;;;;;;;;;4947759;28;20043;-57
2022/04/06 13:53:11;;;;;;;7.87;5.63;;;;;;;;;;4948590;29;20829;-56
2022/04/06 13:55:36;;;;;;;8.30;4.82;;;;;;;;;;4947444;28;20839;-56
2022/04/06 13:58:01;;;;;;;9.32;5.28;;;;;;;;;;4947654;29;20022;-57
2022/04/06 14:00:27;;;;;;;9.55;4.40;;;;;;;;;;4948497;29;20689;-59
2022/04/06 14:02:52;;;;;;;8.52;5.30;;;;;;;;;;4948765;28;20050;-61
2022/04/06 14:05:19;;;;;;;8.90;3.72;;;;;;;;;;4946879;28;20051;-59
2022/04/06 14:07:45;;;;;;;8.15;4.35;;;;;;;;;;4947140;28;20050;-61
2022/04/06 14:10:10;;;;;;;8.52;4.70;;;;;;;;;;4947693;28;20055;-59
2022/04/06 14:12:36;;;;;;;10.23;4.20;;;;;;;;;;4948028;29;20507;-58
2022/04/06 14:15:01;;;;;;;7.10;4.03;;;;;;;;;;4947463;29;20313;-61
2022/04/06 14:17:27;;;;;;;8.98;4.22;;;;;;;;;;4947000;28;20046;-59
2022/04/06 14:19:52;;;;;;;10.38;4.78;;;;;;;;;;4947203;28;20492;-59
2022/04/06 14:22:17;;;;;;;7.65;4.68;;;;;;;;;;4947179;28;20547;-58
2022/04/06 14:25:15;;;;;;;7.43;4.88;;;;;;;;;;4946580;28;20442;-57
2022/04/06 14:27:28;;;;;;;8.05;4.72;;;;;;;;;;4946460;28;20042;-59
2022/04/06 14:29:54;;;;;;;8.57;4.95;;;;;;;;;;4946256;28;20023;-57
2022/04/06 14:32:19;;;;;;;9.27;4.75;;;;;;;;;;4945704;28;20027;-57
2022/04/06 14:34:44;;;;;;;8.02;4.00;;;;;;;;;;4946211;28;20051;-56
2022/04/06 14:37:09;;;;;;;9.37;4.37;;;;;;;;;;4946187;28;20031;-60
2022/04/06 14:39:35;;;;;;;7.27;4.80;;;;;;;;;;4931014;28;20362;-58